createdAt,value
2018-03-02T00:00:00.202Z,34.20
2018-03-02T00:02:27.654Z,34.20
2018-03-02T00:04:55.135Z,34.30
2018-03-02T00:07:23.366Z,34.60
2018-03-02T00:09:50.843Z,34.50
2018-03-02T00:12:18.294Z,34.60
2018-03-02T00:14:45.753Z,34.60
2018-03-02T00:17:13.218Z,34.80
2018-03-02T00:19:40.686Z,34.80
2018-03-02T00:22:08.150Z,34.80
2018-03-02T00:24:35.605Z,35.00
2018-03-02T00:27:03.070Z,34.60
2018-03-02T00:29:30.527Z,35.20
2018-03-02T00:31:57.995Z,35.20
2018-03-02T00:34:25.452Z,35.30
2018-03-02T00:36:52.921Z,35.30
2018-03-02T00:39:20.383Z,35.40
2018-03-02T00:41:47.846Z,35.40
2018-03-02T00:44:15.319Z,35.40
2018-03-02T00:46:42.810Z,35.50
2018-03-02T00:49:11.027Z,35.60
2018-03-02T00:51:38.497Z,35.60
2018-03-02T00:54:05.959Z,35.60
2018-03-02T00:56:33.427Z,35.70
2018-03-02T00:59:00.891Z,35.70
2018-03-02T01:01:28.359Z,35.70
2018-03-02T01:03:55.814Z,35.80
2018-03-02T01:06:23.286Z,35.80
2018-03-02T01:08:50.741Z,35.80
2018-03-02T01:11:18.197Z,35.90
2018-03-02T01:13:45.672Z,36.00
2018-03-02T01:16:13.125Z,36.00
2018-03-02T01:18:40.586Z,36.10
2018-03-02T01:21:08.047Z,36.10
2018-03-02T01:23:35.535Z,36.20
2018-03-02T01:26:02.992Z,36.30
2018-03-02T01:28:30.470Z,36.20
2018-03-02T01:30:57.934Z,36.30
2018-03-02T01:33:25.394Z,36.40
2018-03-02T01:35:52.845Z,36.40
2018-03-02T01:38:20.306Z,36.50
2018-03-02T01:40:47.768Z,36.60
2018-03-02T01:43:15.238Z,37.20
2018-03-02T01:45:43.462Z,36.60
2018-03-02T01:48:10.931Z,36.60
2018-03-02T01:50:38.390Z,36.70
2018-03-02T01:53:05.851Z,36.70
2018-03-02T01:55:33.309Z,36.80
2018-03-02T01:58:00.773Z,36.90
2018-03-02T02:00:28.236Z,36.90
2018-03-02T02:02:55.690Z,36.90
2018-03-02T02:05:23.153Z,37.00
2018-03-02T02:07:50.614Z,37.00
2018-03-02T02:10:18.082Z,37.00
2018-03-02T02:12:45.533Z,37.10
2018-03-02T02:15:12.999Z,37.70
2018-03-02T02:17:40.462Z,37.20
2018-03-02T02:20:07.935Z,37.20
2018-03-02T02:22:35.398Z,37.30
2018-03-02T02:25:02.867Z,37.40
2018-03-02T02:27:30.324Z,37.50
2018-03-02T02:29:57.790Z,37.40
2018-03-02T02:32:25.251Z,37.60
2018-03-02T02:34:52.729Z,37.60
2018-03-02T02:37:20.174Z,37.70
2018-03-02T02:39:47.646Z,37.80
2018-03-02T02:42:15.104Z,37.80
2018-03-02T02:44:42.560Z,38.50
2018-03-02T02:47:10.023Z,38.00
2018-03-02T02:49:38.251Z,38.20
2018-03-02T02:52:05.718Z,38.20
2018-03-02T02:54:33.178Z,38.20
2018-03-02T02:57:00.651Z,38.30
2018-03-02T02:59:28.110Z,38.40
2018-03-02T03:01:55.584Z,38.40
2018-03-02T03:04:23.036Z,38.50
2018-03-02T03:06:50.502Z,38.50
2018-03-02T03:09:17.961Z,38.50
2018-03-02T03:11:45.433Z,38.60
2018-03-02T03:14:12.896Z,38.70
2018-03-02T03:16:40.361Z,38.70
2018-03-02T03:19:07.821Z,39.30
2018-03-02T03:21:35.302Z,38.30
2018-03-02T03:24:02.777Z,38.40
2018-03-02T03:26:30.245Z,38.70
2018-03-02T03:28:58.471Z,39.20
2018-03-02T03:31:25.955Z,38.80
2018-03-02T03:33:53.419Z,38.90
2018-03-02T03:36:20.869Z,38.90
2018-03-02T03:38:48.338Z,38.90
2018-03-02T03:41:15.795Z,39.00
2018-03-02T03:43:43.258Z,39.00
2018-03-02T03:46:10.713Z,39.00
2018-03-02T03:48:38.178Z,39.10
2018-03-02T03:51:05.640Z,39.10
2018-03-02T03:53:33.106Z,39.00
2018-03-02T03:56:00.570Z,39.10
2018-03-02T03:58:28.035Z,39.20
2018-03-02T04:00:55.498Z,39.10
2018-03-02T04:03:22.961Z,39.20
2018-03-02T04:05:50.417Z,39.20
2018-03-02T04:08:17.883Z,39.30
2018-03-02T04:10:45.338Z,39.30
2018-03-02T04:13:12.801Z,39.40
2018-03-02T04:15:40.265Z,39.40
2018-03-02T04:18:07.742Z,39.40
2018-03-02T04:20:35.202Z,39.40
2018-03-02T04:23:02.675Z,39.50
2018-03-02T04:25:30.898Z,39.40
2018-03-02T04:27:58.357Z,39.40
2018-03-02T04:30:25.826Z,39.50
2018-03-02T04:32:53.298Z,39.40
2018-03-02T04:35:20.757Z,39.50
2018-03-02T04:37:48.218Z,39.60
2018-03-02T04:40:15.681Z,39.60
2018-03-02T04:42:43.137Z,39.50
2018-03-02T04:45:10.598Z,39.70
2018-03-02T04:47:38.066Z,39.70
2018-03-02T04:50:05.538Z,39.70
2018-03-02T04:52:32.992Z,39.70
2018-03-02T04:55:00.471Z,39.70
2018-03-02T04:57:27.922Z,39.70
2018-03-02T04:59:55.385Z,39.70
2018-03-02T05:02:22.846Z,39.80
2018-03-02T05:04:50.314Z,39.80
2018-03-02T05:07:17.770Z,39.80
2018-03-02T05:09:45.246Z,39.80
2018-03-02T05:12:12.703Z,39.80
2018-03-02T05:14:40.168Z,39.80
2018-03-02T05:17:08.422Z,39.90
2018-03-02T05:19:35.894Z,39.80
2018-03-02T05:22:03.366Z,39.90
2018-03-02T05:24:30.815Z,39.90
2018-03-02T05:26:58.289Z,39.90
2018-03-02T05:29:25.751Z,39.80
2018-03-02T05:31:53.218Z,39.70
2018-03-02T05:34:20.675Z,39.90
2018-03-02T05:36:48.143Z,39.90
2018-03-02T05:39:15.611Z,40.00
2018-03-02T05:41:43.078Z,39.90
2018-03-02T05:44:10.539Z,40.00
2018-03-02T05:46:38.002Z,39.80
2018-03-02T05:49:05.472Z,39.90
2018-03-02T05:51:32.933Z,39.90
2018-03-02T05:54:00.394Z,39.90
2018-03-02T05:56:27.859Z,40.00
2018-03-02T05:58:55.309Z,40.00
2018-03-02T06:01:22.780Z,40.00
2018-03-02T06:03:50.999Z,40.00
2018-03-02T06:06:18.497Z,40.00
2018-03-02T06:08:45.953Z,39.50
2018-03-02T06:11:13.410Z,40.00
2018-03-02T06:13:40.875Z,40.10
2018-03-02T06:16:08.331Z,40.70
2018-03-02T06:18:35.789Z,40.20
2018-03-02T06:21:03.246Z,40.10
2018-03-02T06:23:30.718Z,40.10
2018-03-02T06:25:58.178Z,40.10
2018-03-02T06:28:25.653Z,40.30
2018-03-02T06:30:53.102Z,40.30
2018-03-02T06:33:20.570Z,40.30
2018-03-02T06:35:48.032Z,40.20
2018-03-02T06:38:15.501Z,40.20
2018-03-02T06:40:42.962Z,40.20
2018-03-02T06:43:10.422Z,40.10
2018-03-02T06:45:37.891Z,40.20
2018-03-02T06:48:05.354Z,40.20
2018-03-02T06:50:32.810Z,40.40
2018-03-02T06:53:00.274Z,40.30
2018-03-02T06:55:27.737Z,40.30
2018-03-02T06:57:55.194Z,40.10
2018-03-02T07:00:23.414Z,40.20
2018-03-02T07:02:50.887Z,40.20
2018-03-02T07:05:18.355Z,40.30
2018-03-02T07:07:45.814Z,39.90
2018-03-02T07:10:13.299Z,40.30
2018-03-02T07:12:40.754Z,40.30
2018-03-02T07:15:08.222Z,40.20
2018-03-02T07:17:35.685Z,40.20
2018-03-02T07:20:03.226Z,39.70
2018-03-02T07:22:31.451Z,40.20
2018-03-02T07:24:58.917Z,40.20
2018-03-02T07:27:27.138Z,40.20
2018-03-02T07:29:55.377Z,40.20
2018-03-02T07:32:22.831Z,40.10
2018-03-02T07:34:50.297Z,40.10
2018-03-02T07:37:17.754Z,40.10
2018-03-02T07:39:45.224Z,40.30
2018-03-02T07:42:12.674Z,40.10
2018-03-02T07:44:40.151Z,40.10
2018-03-02T07:47:07.606Z,40.00
2018-03-02T07:49:35.070Z,39.90
2018-03-02T07:52:02.531Z,39.80
2018-03-02T07:54:30.018Z,39.80
2018-03-02T07:56:57.495Z,39.90
2018-03-02T07:59:24.949Z,39.90
2018-03-02T08:01:52.432Z,39.80
2018-03-02T08:04:19.932Z,39.70
2018-03-02T08:06:47.350Z,39.60
2018-03-02T08:09:14.810Z,39.50
2018-03-02T08:11:42.277Z,39.50
2018-03-02T08:14:10.506Z,39.40
2018-03-02T08:16:37.970Z,39.50
2018-03-02T08:19:05.421Z,39.30
2018-03-02T08:21:32.899Z,39.20
2018-03-02T08:24:00.355Z,39.10
2018-03-02T08:26:27.820Z,39.10
2018-03-02T08:28:55.287Z,38.90
2018-03-02T08:31:22.768Z,38.90
2018-03-02T08:33:50.218Z,38.80
2018-03-02T08:36:17.727Z,38.80
2018-03-02T08:38:45.197Z,38.80
2018-03-02T08:41:12.674Z,38.80
2018-03-02T08:43:40.899Z,38.60
2018-03-02T08:46:08.361Z,38.50
2018-03-02T08:48:35.842Z,38.50
2018-03-02T08:51:03.298Z,38.40
2018-03-02T08:53:30.770Z,38.40
2018-03-02T08:55:58.231Z,38.30
2018-03-02T08:58:25.713Z,37.70
2018-03-02T09:00:53.158Z,38.20
2018-03-02T09:03:20.626Z,38.20
2018-03-02T09:05:48.196Z,38.20
2018-03-02T09:08:15.660Z,38.20
2018-03-02T09:10:43.116Z,38.10
2018-03-02T09:13:10.582Z,38.40
2018-03-02T09:15:38.042Z,37.90
2018-03-02T09:18:05.511Z,37.70
2018-03-02T09:20:32.963Z,37.70
2018-03-02T09:23:00.426Z,37.80
2018-03-02T09:25:27.894Z,37.60
2018-03-02T09:27:55.354Z,37.50
2018-03-02T09:30:22.828Z,37.40
2018-03-02T09:32:50.287Z,36.80
2018-03-02T09:35:17.750Z,37.20
2018-03-02T09:37:45.210Z,37.20
2018-03-02T09:40:12.756Z,37.10
2018-03-02T09:42:40.302Z,37.10
2018-03-02T09:45:07.738Z,36.90
2018-03-02T09:47:35.199Z,36.80
2018-03-02T09:50:02.671Z,36.70
2018-03-02T09:52:30.127Z,36.60
2018-03-02T09:54:57.735Z,36.50
2018-03-02T09:57:25.401Z,36.60
2018-03-02T09:59:52.857Z,36.50
2018-03-02T10:02:20.322Z,36.40
2018-03-02T10:04:47.779Z,36.30
2018-03-02T10:07:15.230Z,36.30
2018-03-02T10:09:42.708Z,36.10
2018-03-02T10:12:10.165Z,36.10
2018-03-02T10:14:37.622Z,35.90
2018-03-02T10:17:05.083Z,35.80
2018-03-02T10:19:32.554Z,35.70
2018-03-02T10:22:00.000Z,35.10
2018-03-02T10:24:27.462Z,35.60
2018-03-02T10:26:54.924Z,35.50
2018-03-02T10:29:22.377Z,35.40
2018-03-02T10:31:49.837Z,35.30
2018-03-02T10:34:17.299Z,35.40
2018-03-02T10:36:44.754Z,35.30
2018-03-02T10:39:12.220Z,35.20
2018-03-02T10:41:39.667Z,35.10
2018-03-02T10:44:07.131Z,35.00
2018-03-02T10:46:34.628Z,34.90
2018-03-02T10:49:02.085Z,34.80
2018-03-02T10:51:29.543Z,34.60
2018-03-02T10:53:57.022Z,34.60
2018-03-02T10:56:24.478Z,34.60
2018-03-02T10:58:51.948Z,34.60
2018-03-02T11:01:25.024Z,34.40
2018-03-02T11:03:58.178Z,34.40
2018-03-02T11:06:25.630Z,34.40
2018-03-02T11:08:53.105Z,34.40
2018-03-02T11:11:20.556Z,34.20
2018-03-02T11:13:48.059Z,34.10
2018-03-02T11:16:15.518Z,33.60
2018-03-02T11:18:42.978Z,34.10
2018-03-02T11:21:10.446Z,34.10
2018-03-02T11:23:37.910Z,34.10
2018-03-02T11:26:05.374Z,34.00
2018-03-02T11:28:32.830Z,33.90
2018-03-02T11:31:00.286Z,33.80
2018-03-02T11:33:27.742Z,33.90
2018-03-02T11:35:55.202Z,33.90
2018-03-02T11:38:22.653Z,33.80
2018-03-02T11:40:50.118Z,33.70
2018-03-02T11:43:17.573Z,33.60
2018-03-02T11:45:45.034Z,33.50
2018-03-02T11:48:12.486Z,33.40
2018-03-02T11:50:39.951Z,33.40
2018-03-02T11:53:07.406Z,33.30
2018-03-02T11:55:34.870Z,33.40
2018-03-02T11:58:02.376Z,33.40
2018-03-02T12:00:29.854Z,33.40
2018-03-02T12:02:58.101Z,33.30
2018-03-02T12:05:25.567Z,33.30
2018-03-02T12:07:53.019Z,33.30
2018-03-02T12:10:20.481Z,33.30
2018-03-02T12:12:47.939Z,33.20
2018-03-02T12:15:15.414Z,33.20
2018-03-02T12:17:42.875Z,32.90
2018-03-02T12:20:10.342Z,32.90
2018-03-02T12:22:37.865Z,33.50
2018-03-02T12:25:05.254Z,33.00
2018-03-02T12:27:32.706Z,33.10
2018-03-02T12:30:00.166Z,33.00
2018-03-02T12:32:27.622Z,32.90
2018-03-02T12:34:55.079Z,32.90
2018-03-02T12:37:22.549Z,32.90
2018-03-02T12:39:50.007Z,32.70
2018-03-02T12:42:17.466Z,32.80
2018-03-02T12:44:44.932Z,32.60
2018-03-02T12:47:12.378Z,32.70
2018-03-02T12:49:39.853Z,32.60
2018-03-02T12:52:07.310Z,32.40
2018-03-02T12:54:34.844Z,32.30
2018-03-02T12:57:02.227Z,32.40
2018-03-02T12:59:29.673Z,32.30
2018-03-02T13:01:57.132Z,32.20
2018-03-02T13:04:24.590Z,32.20
2018-03-02T13:06:52.049Z,32.10
2018-03-02T13:09:19.503Z,32.10
2018-03-02T13:11:46.966Z,32.10
2018-03-02T13:14:14.422Z,32.10
2018-03-02T13:16:41.874Z,32.00
2018-03-02T13:19:09.331Z,32.00
2018-03-02T13:21:36.814Z,32.10
2018-03-02T13:24:04.274Z,32.00
2018-03-02T13:26:43.561Z,32.00
2018-03-02T13:29:11.021Z,31.90
2018-03-02T13:31:38.480Z,31.80
2018-03-02T13:34:17.712Z,31.90
2018-03-02T13:36:45.171Z,31.90
2018-03-02T13:39:12.633Z,31.80
2018-03-02T13:41:51.973Z,31.80
2018-03-02T13:44:19.426Z,31.80
2018-03-02T13:46:46.894Z,31.70
2018-03-02T13:49:26.107Z,31.60
2018-03-02T13:51:53.564Z,31.60
2018-03-02T13:54:21.019Z,31.60
2018-03-02T13:57:11.067Z,31.70
2018-03-02T13:59:38.514Z,31.70
2018-03-02T14:02:05.977Z,31.70
2018-03-02T14:04:54.198Z,31.70
2018-03-02T14:07:21.663Z,31.70
2018-03-02T14:09:49.110Z,31.60
2018-03-02T14:12:16.577Z,31.70
2018-03-02T14:14:44.035Z,31.70
2018-03-02T14:17:11.507Z,31.80
2018-03-02T14:19:38.958Z,31.70
2018-03-02T14:22:06.425Z,31.70
2018-03-02T14:24:34.646Z,31.90
2018-03-02T14:27:02.103Z,31.70
2018-03-02T14:29:29.559Z,31.70
2018-03-02T14:31:57.014Z,31.70
2018-03-02T14:34:24.528Z,31.60
2018-03-02T14:36:51.986Z,31.60
2018-03-02T14:39:19.446Z,31.60
2018-03-02T14:41:46.910Z,31.50
2018-03-02T14:44:14.371Z,31.50
2018-03-02T14:46:41.844Z,31.60
2018-03-02T14:49:09.310Z,31.60
2018-03-02T14:51:36.797Z,31.60
2018-03-02T14:54:04.235Z,31.60
2018-03-02T14:56:31.682Z,31.60
2018-03-02T14:58:59.150Z,31.70
2018-03-02T15:01:26.605Z,31.70
2018-03-02T15:03:54.081Z,31.70
2018-03-02T15:06:21.538Z,31.70
2018-03-02T15:08:49.045Z,31.70
2018-03-02T15:11:17.263Z,31.70
2018-03-02T15:13:44.737Z,31.70
2018-03-02T15:16:12.226Z,32.20
2018-03-02T15:18:39.721Z,31.70
2018-03-02T15:21:07.179Z,31.80
2018-03-02T15:23:34.658Z,31.80
2018-03-02T15:26:02.126Z,31.80
2018-03-02T15:28:29.587Z,31.80
2018-03-02T15:30:57.055Z,31.80
2018-03-02T15:33:25.296Z,31.90
2018-03-02T15:35:52.767Z,31.90
2018-03-02T15:38:20.234Z,31.90
2018-03-02T15:40:47.710Z,31.90
2018-03-02T15:43:15.162Z,32.00
2018-03-02T15:45:42.626Z,31.90
2018-03-02T15:48:10.087Z,32.00
2018-03-02T15:50:37.545Z,32.10
2018-03-02T15:53:04.998Z,32.00
2018-03-02T15:55:32.476Z,32.10
2018-03-02T15:57:59.944Z,32.10
2018-03-02T16:00:27.396Z,32.20
2018-03-02T16:02:54.908Z,32.20
2018-03-02T16:05:23.185Z,32.20
2018-03-02T16:07:51.561Z,32.20
2018-03-02T16:10:19.018Z,32.20
2018-03-02T16:12:46.479Z,32.20
2018-03-02T16:15:13.930Z,32.30
2018-03-02T16:17:41.393Z,32.30
2018-03-02T16:20:08.866Z,32.30
2018-03-02T16:22:36.324Z,32.40
2018-03-02T16:25:03.777Z,32.40
2018-03-02T16:27:31.260Z,32.30
2018-03-02T16:29:58.718Z,32.30
2018-03-02T16:32:26.179Z,32.50
2018-03-02T16:34:53.633Z,32.30
2018-03-02T16:37:21.117Z,32.40
2018-03-02T16:39:48.574Z,32.50
2018-03-02T16:42:16.022Z,32.50
2018-03-02T16:44:43.482Z,32.50
2018-03-02T16:47:10.942Z,32.50
2018-03-02T16:49:38.398Z,32.50
2018-03-02T16:52:05.858Z,32.50
2018-03-02T16:54:33.334Z,32.60
2018-03-02T16:57:00.778Z,32.60
2018-03-02T16:59:28.254Z,32.70
2018-03-02T17:01:55.703Z,32.70
2018-03-02T17:04:23.162Z,32.70
2018-03-02T17:06:50.620Z,32.70
2018-03-02T17:09:18.082Z,32.80
2018-03-02T17:11:46.310Z,32.80
2018-03-02T17:14:13.805Z,32.80
2018-03-02T17:16:41.230Z,32.80
2018-03-02T17:19:08.694Z,32.80
2018-03-02T17:21:36.149Z,32.80
2018-03-02T17:24:04.522Z,32.80
2018-03-02T17:26:31.974Z,33.50
2018-03-02T17:28:59.447Z,32.80
2018-03-02T17:31:26.915Z,32.90
2018-03-02T17:33:54.387Z,32.90
2018-03-02T17:36:21.846Z,32.90
2018-03-02T17:38:49.303Z,33.00
2018-03-02T17:41:16.768Z,33.00
2018-03-02T17:43:44.216Z,33.00
2018-03-02T17:46:11.688Z,33.00
2018-03-02T17:48:39.138Z,33.00
2018-03-02T17:51:06.590Z,33.00
2018-03-02T17:53:34.046Z,33.10
2018-03-02T17:56:01.506Z,33.10
2018-03-02T17:58:28.962Z,33.20
2018-03-02T18:00:56.419Z,33.20
2018-03-02T18:03:23.870Z,33.30
2018-03-02T18:05:51.339Z,33.40
2018-03-02T18:08:18.786Z,33.40
2018-03-02T18:10:46.250Z,33.40
2018-03-02T18:13:13.707Z,33.50
2018-03-02T18:15:41.170Z,33.50
2018-03-02T18:18:08.627Z,33.50
2018-03-02T18:20:36.094Z,33.60
2018-03-02T18:23:03.542Z,33.50
2018-03-02T18:25:31.016Z,33.50
2018-03-02T18:27:58.482Z,33.50
2018-03-02T18:30:25.964Z,33.50
2018-03-02T18:32:53.434Z,33.50
2018-03-02T18:35:20.883Z,33.50
2018-03-02T18:37:48.342Z,33.70
2018-03-02T18:40:15.811Z,33.70
2018-03-02T18:42:43.278Z,33.70
2018-03-02T18:45:10.730Z,33.70
2018-03-02T18:47:38.202Z,33.70
2018-03-02T18:50:05.663Z,33.80
2018-03-02T18:52:33.899Z,33.70
2018-03-02T18:55:01.354Z,33.70
2018-03-02T18:57:28.815Z,33.70
2018-03-02T18:59:56.270Z,34.20
2018-03-02T19:02:23.751Z,33.70
2018-03-02T19:04:51.210Z,33.70
2018-03-02T19:07:18.679Z,33.80
2018-03-02T19:09:46.140Z,33.90
2018-03-02T19:12:13.631Z,34.00
2018-03-02T19:14:41.090Z,34.00
2018-03-02T19:17:08.553Z,34.00
2018-03-02T19:19:36.020Z,34.10
2018-03-02T19:22:03.479Z,34.10
2018-03-02T19:24:30.967Z,34.70
2018-03-02T19:26:58.422Z,34.20
2018-03-02T19:29:25.885Z,34.20
2018-03-02T19:31:54.107Z,34.20
2018-03-02T19:34:21.576Z,34.20
2018-03-02T19:36:49.026Z,34.20
2018-03-02T19:39:16.502Z,34.30
2018-03-02T19:41:43.956Z,34.30
2018-03-02T19:44:11.423Z,34.30
2018-03-02T19:46:38.877Z,34.40
2018-03-02T19:49:06.335Z,34.40
2018-03-02T19:51:33.790Z,34.40
2018-03-02T19:54:01.259Z,34.50
2018-03-02T19:56:28.710Z,34.50
2018-03-02T19:58:56.182Z,34.50
2018-03-02T20:01:23.637Z,34.50
2018-03-02T20:03:51.130Z,34.60
2018-03-02T20:06:18.570Z,34.60
2018-03-02T20:08:46.031Z,34.70
2018-03-02T20:11:13.507Z,34.70
2018-03-02T20:13:40.975Z,34.20
2018-03-02T20:16:08.457Z,34.70
2018-03-02T20:18:35.902Z,34.70
2018-03-02T20:21:03.391Z,34.80
2018-03-02T20:23:30.862Z,34.70
2018-03-02T20:25:59.095Z,34.80
2018-03-02T20:28:27.331Z,34.80
2018-03-02T20:30:54.804Z,34.80
2018-03-02T20:33:22.256Z,34.80
2018-03-02T20:35:49.722Z,35.00
2018-03-02T20:38:17.178Z,34.90
2018-03-02T20:40:44.654Z,34.90
2018-03-02T20:43:12.120Z,34.90
2018-03-02T20:45:39.594Z,34.90
2018-03-02T20:48:07.058Z,34.90
2018-03-02T20:50:34.530Z,35.00
2018-03-02T20:53:01.983Z,35.00
2018-03-02T20:55:30.218Z,35.00
2018-03-02T20:57:57.669Z,35.00
2018-03-02T21:00:25.130Z,35.00
2018-03-02T21:02:52.586Z,35.00
2018-03-02T21:05:20.052Z,35.10
2018-03-02T21:07:47.525Z,35.10
2018-03-02T21:10:14.978Z,35.60
2018-03-02T21:12:42.439Z,35.10
2018-03-02T21:15:09.899Z,35.20
2018-03-02T21:17:37.371Z,35.80
2018-03-02T21:20:05.607Z,35.20
2018-03-02T21:22:33.838Z,35.20
2018-03-02T21:25:01.615Z,35.40
2018-03-02T21:27:29.074Z,35.30
2018-03-02T21:29:56.529Z,35.30
2018-03-02T21:32:23.992Z,35.40
2018-03-02T21:34:51.451Z,35.40
2018-03-02T21:37:18.918Z,35.40
2018-03-02T21:39:46.366Z,35.60
2018-03-02T21:42:13.834Z,35.50
2018-03-02T21:44:41.302Z,35.60
2018-03-02T21:47:08.772Z,35.70
2018-03-02T21:49:36.239Z,35.70
2018-03-02T21:52:03.699Z,35.80
2018-03-02T21:54:31.154Z,35.90
2018-03-02T21:56:58.626Z,35.90
2018-03-02T21:59:26.094Z,36.00
2018-03-02T22:01:53.579Z,36.00
2018-03-02T22:04:21.035Z,36.10
2018-03-02T22:06:48.491Z,36.00
2018-03-02T22:09:15.955Z,36.10
2018-03-02T22:11:43.411Z,36.20
2018-03-02T22:14:10.886Z,36.80
2018-03-02T22:16:38.337Z,36.40
2018-03-02T22:19:05.863Z,36.40
2018-03-02T22:21:33.330Z,36.50
2018-03-02T22:24:00.799Z,36.50
2018-03-02T22:26:28.251Z,36.70
2018-03-02T22:28:55.714Z,36.90
2018-03-02T22:31:23.182Z,37.30
2018-03-02T22:33:50.666Z,37.60
2018-03-02T22:36:18.127Z,38.00
2018-03-02T22:38:46.341Z,38.50
2018-03-02T22:41:13.817Z,38.50
2018-03-02T22:43:41.278Z,38.80
2018-03-02T22:46:08.744Z,39.20
2018-03-02T22:48:36.203Z,39.50
2018-03-02T22:51:03.670Z,39.80
2018-03-02T22:53:31.138Z,40.30
2018-03-02T22:55:58.602Z,40.70
2018-03-02T22:58:26.059Z,41.30
2018-03-02T23:00:53.531Z,41.80
2018-03-02T23:03:20.989Z,42.40
2018-03-02T23:05:48.463Z,42.90
2018-03-02T23:08:15.916Z,43.40
2018-03-02T23:10:43.379Z,43.90
2018-03-02T23:13:10.826Z,44.40
2018-03-02T23:15:38.314Z,44.80
2018-03-02T23:18:05.778Z,45.30
2018-03-02T23:20:33.242Z,45.80
2018-03-02T23:23:00.709Z,46.10
2018-03-02T23:25:28.166Z,46.60
2018-03-02T23:27:55.630Z,47.00
2018-03-02T23:30:23.098Z,47.20
2018-03-02T23:32:50.564Z,47.10
2018-03-02T23:35:18.786Z,48.20
2018-03-02T23:37:46.268Z,48.10
2018-03-02T23:40:13.722Z,48.50
2018-03-02T23:42:41.185Z,48.70
2018-03-02T23:45:08.634Z,48.90
2018-03-02T23:47:36.095Z,49.10
2018-03-02T23:50:03.550Z,49.30
2018-03-02T23:52:31.014Z,49.50
2018-03-02T23:54:58.476Z,49.70
2018-03-02T23:57:25.933Z,49.90
2018-03-02T23:59:53.406Z,50.00
